sensor_id;sensor_type;location;lat;lon;timestamp;P1;durP1;ratioP1;P2;durP2;ratioP2
26484;SDS011;18083;50.560;7.262;2023-05-03T00:00:35;18.37;;;8.80;;
26484;SDS011;18083;50.560;7.262;2023-05-03T00:03:02;15.23;;;9.43;;
26484;SDS011;18083;50.560;7.262;2023-05-03T00:05:31;15.73;;;9.43;;
26484;SDS011;18083;50.560;7.262;2023-05-03T00:07:59;16.50;;;7.80;;
26484;SDS011;18083;50.560;7.262;2023-05-03T00:10:26;14.33;;;10.40;;
26484;SDS011;18083;50.560;7.262;2023-05-03T00:12:54;13.87;;;9.40;;
26484;SDS011;18083;50.560;7.262;2023-05-03T00:15:22;15.30;;;8.60;;
26484;SDS011;18083;50.560;7.262;2023-05-03T00:17:49;13.27;;;9.13;;
26484;SDS011;18083;50.560;7.262;2023-05-03T00:20:16;13.80;;;7.43;;
26484;SDS011;18083;50.560;7.262;2023-05-03T00:22:44;15.13;;;8.23;;
26484;SDS011;18083;50.560;7.262;2023-05-03T00:25:12;21.33;;;8.50;;
26484;SDS011;18083;50.560;7.262;2023-05-03T00:27:40;22.00;;;9.63;;
26484;SDS011;18083;50.560;7.262;2023-05-03T00:30:07;15.03;;;8.67;;
26484;SDS011;18083;50.560;7.262;2023-05-03T00:32:36;17.73;;;8.63;;
26484;SDS011;18083;50.560;7.262;2023-05-03T00:35:03;13.10;;;9.03;;
26484;SDS011;18083;50.560;7.262;2023-05-03T00:37:30;14.27;;;8.47;;
26484;SDS011;18083;50.560;7.262;2023-05-03T00:39:58;12.73;;;8.10;;
26484;SDS011;18083;50.560;7.262;2023-05-03T00:42:25;13.13;;;8.77;;
26484;SDS011;18083;50.560;7.262;2023-05-03T00:44:53;12.60;;;7.90;;
26484;SDS011;18083;50.560;7.262;2023-05-03T00:47:21;12.13;;;8.03;;
26484;SDS011;18083;50.560;7.262;2023-05-03T00:49:48;10.73;;;8.10;;
26484;SDS011;18083;50.560;7.262;2023-05-03T00:52:16;12.40;;;7.20;;
26484;SDS011;18083;50.560;7.262;2023-05-03T00:54:43;11.67;;;7.93;;
26484;SDS011;18083;50.560;7.262;2023-05-03T00:57:11;16.23;;;7.97;;
26484;SDS011;18083;50.560;7.262;2023-05-03T00:59:38;14.37;;;8.23;;
26484;SDS011;18083;50.560;7.262;2023-05-03T01:02:06;10.80;;;8.17;;
26484;SDS011;18083;50.560;7.262;2023-05-03T01:04:34;15.23;;;8.97;;
26484;SDS011;18083;50.560;7.262;2023-05-03T01:09:42;15.63;;;8.67;;
26484;SDS011;18083;50.560;7.262;2023-05-03T01:14:45;12.07;;;8.13;;
26484;SDS011;18083;50.560;7.262;2023-05-03T01:17:12;16.73;;;9.87;;
26484;SDS011;18083;50.560;7.262;2023-05-03T01:19:44;11.83;;;8.53;;
26484;SDS011;18083;50.560;7.262;2023-05-03T01:22:25;11.03;;;7.50;;
26484;SDS011;18083;50.560;7.262;2023-05-03T01:24:50;15.77;;;9.20;;
26484;SDS011;18083;50.560;7.262;2023-05-03T01:27:18;13.40;;;8.43;;
26484;SDS011;18083;50.560;7.262;2023-05-03T01:29:46;12.90;;;8.20;;
26484;SDS011;18083;50.560;7.262;2023-05-03T01:32:18;13.30;;;8.10;;
26484;SDS011;18083;50.560;7.262;2023-05-03T01:34:50;11.40;;;8.10;;
26484;SDS011;18083;50.560;7.262;2023-05-03T01:37:17;12.77;;;7.80;;
26484;SDS011;18083;50.560;7.262;2023-05-03T01:39:47;14.43;;;8.03;;
26484;SDS011;18083;50.560;7.262;2023-05-03T01:42:13;18.00;;;7.80;;
26484;SDS011;18083;50.560;7.262;2023-05-03T01:44:41;10.43;;;7.20;;
26484;SDS011;18083;50.560;7.262;2023-05-03T01:47:09;14.03;;;8.17;;
26484;SDS011;18083;50.560;7.262;2023-05-03T01:49:36;11.70;;;7.53;;
26484;SDS011;18083;50.560;7.262;2023-05-03T01:52:04;14.40;;;8.73;;
26484;SDS011;18083;50.560;7.262;2023-05-03T01:54:31;17.63;;;9.17;;
26484;SDS011;18083;50.560;7.262;2023-05-03T01:56:58;11.90;;;8.30;;
26484;SDS011;18083;50.560;7.262;2023-05-03T01:59:26;11.77;;;8.00;;
26484;SDS011;18083;50.560;7.262;2023-05-03T02:01:54;11.27;;;7.33;;
26484;SDS011;18083;50.560;7.262;2023-05-03T02:04:21;12.93;;;7.57;;
26484;SDS011;18083;50.560;7.262;2023-05-03T02:06:48;13.57;;;9.00;;
26484;SDS011;18083;50.560;7.262;2023-05-03T02:09:16;12.07;;;8.63;;
26484;SDS011;18083;50.560;7.262;2023-05-03T02:11:43;15.40;;;9.07;;
26484;SDS011;18083;50.560;7.262;2023-05-03T02:14:10;16.17;;;8.37;;
26484;SDS011;18083;50.560;7.262;2023-05-03T02:16:38;17.80;;;7.43;;
26484;SDS011;18083;50.560;7.262;2023-05-03T02:19:05;12.40;;;7.80;;
26484;SDS011;18083;50.560;7.262;2023-05-03T02:21:33;14.17;;;9.33;;
26484;SDS011;18083;50.560;7.262;2023-05-03T02:24:01;13.23;;;8.40;;
26484;SDS011;18083;50.560;7.262;2023-05-03T02:26:28;14.80;;;8.63;;
26484;SDS011;18083;50.560;7.262;2023-05-03T02:28:56;12.37;;;8.23;;
26484;SDS011;18083;50.560;7.262;2023-05-03T02:31:23;16.03;;;8.87;;
26484;SDS011;18083;50.560;7.262;2023-05-03T02:33:51;12.40;;;7.90;;
26484;SDS011;18083;50.560;7.262;2023-05-03T02:36:20;14.40;;;8.43;;
26484;SDS011;18083;50.560;7.262;2023-05-03T02:38:47;18.47;;;9.23;;
26484;SDS011;18083;50.560;7.262;2023-05-03T02:41:14;14.67;;;8.97;;
26484;SDS011;18083;50.560;7.262;2023-05-03T02:43:42;16.33;;;8.03;;
26484;SDS011;18083;50.560;7.262;2023-05-03T02:46:09;16.77;;;8.30;;
26484;SDS011;18083;50.560;7.262;2023-05-03T02:48:36;19.73;;;8.83;;
26484;SDS011;18083;50.560;7.262;2023-05-03T02:51:04;14.53;;;8.27;;
26484;SDS011;18083;50.560;7.262;2023-05-03T02:53:31;14.37;;;9.70;;
26484;SDS011;18083;50.560;7.262;2023-05-03T02:55:58;13.50;;;7.10;;
26484;SDS011;18083;50.560;7.262;2023-05-03T02:58:26;14.63;;;8.03;;
26484;SDS011;18083;50.560;7.262;2023-05-03T03:00:53;13.03;;;7.77;;
26484;SDS011;18083;50.560;7.262;2023-05-03T03:03:20;14.63;;;8.27;;
26484;SDS011;18083;50.560;7.262;2023-05-03T03:05:47;17.33;;;7.97;;
26484;SDS011;18083;50.560;7.262;2023-05-03T03:08:15;12.60;;;8.10;;
26484;SDS011;18083;50.560;7.262;2023-05-03T03:10:42;15.27;;;8.40;;
26484;SDS011;18083;50.560;7.262;2023-05-03T03:13:09;16.70;;;8.07;;
26484;SDS011;18083;50.560;7.262;2023-05-03T03:15:36;14.13;;;8.07;;
26484;SDS011;18083;50.560;7.262;2023-05-03T03:18:04;12.03;;;8.30;;
26484;SDS011;18083;50.560;7.262;2023-05-03T03:20:31;18.93;;;9.47;;
26484;SDS011;18083;50.560;7.262;2023-05-03T03:22:58;15.47;;;8.27;;
26484;SDS011;18083;50.560;7.262;2023-05-03T03:25:26;15.30;;;9.00;;
26484;SDS011;18083;50.560;7.262;2023-05-03T03:27:53;11.47;;;8.87;;
26484;SDS011;18083;50.560;7.262;2023-05-03T03:30:20;14.13;;;8.20;;
26484;SDS011;18083;50.560;7.262;2023-05-03T03:32:48;15.70;;;8.07;;
26484;SDS011;18083;50.560;7.262;2023-05-03T03:35:15;18.73;;;9.40;;
26484;SDS011;18083;50.560;7.262;2023-05-03T03:37:42;18.23;;;9.37;;
26484;SDS011;18083;50.560;7.262;2023-05-03T03:40:10;17.90;;;9.43;;
26484;SDS011;18083;50.560;7.262;2023-05-03T03:42:38;16.70;;;8.97;;
26484;SDS011;18083;50.560;7.262;2023-05-03T03:45:05;14.03;;;8.00;;
26484;SDS011;18083;50.560;7.262;2023-05-03T03:47:33;14.00;;;8.10;;
26484;SDS011;18083;50.560;7.262;2023-05-03T03:50:00;17.03;;;9.57;;
26484;SDS011;18083;50.560;7.262;2023-05-03T03:52:27;16.40;;;8.57;;
26484;SDS011;18083;50.560;7.262;2023-05-03T03:54:55;13.77;;;8.27;;
26484;SDS011;18083;50.560;7.262;2023-05-03T03:57:22;13.77;;;8.53;;
26484;SDS011;18083;50.560;7.262;2023-05-03T03:59:51;19.00;;;9.73;;
26484;SDS011;18083;50.560;7.262;2023-05-03T04:02:19;17.97;;;8.77;;
26484;SDS011;18083;50.560;7.262;2023-05-03T04:04:47;15.07;;;9.50;;
26484;SDS011;18083;50.560;7.262;2023-05-03T04:07:14;20.33;;;8.47;;
26484;SDS011;18083;50.560;7.262;2023-05-03T04:09:41;15.87;;;10.07;;
26484;SDS011;18083;50.560;7.262;2023-05-03T04:12:09;15.90;;;9.60;;
26484;SDS011;18083;50.560;7.262;2023-05-03T04:14:36;17.90;;;9.80;;
26484;SDS011;18083;50.560;7.262;2023-05-03T04:17:03;19.77;;;9.70;;
26484;SDS011;18083;50.560;7.262;2023-05-03T04:19:31;19.23;;;10.63;;
26484;SDS011;18083;50.560;7.262;2023-05-03T04:21:58;19.83;;;11.03;;
26484;SDS011;18083;50.560;7.262;2023-05-03T04:24:26;19.43;;;9.77;;
26484;SDS011;18083;50.560;7.262;2023-05-03T04:26:55;18.00;;;9.83;;
26484;SDS011;18083;50.560;7.262;2023-05-03T04:29:24;18.93;;;9.60;;
26484;SDS011;18083;50.560;7.262;2023-05-03T04:31:51;20.03;;;10.10;;
26484;SDS011;18083;50.560;7.262;2023-05-03T04:34:18;18.80;;;11.50;;
26484;SDS011;18083;50.560;7.262;2023-05-03T04:36:46;19.67;;;10.20;;
26484;SDS011;18083;50.560;7.262;2023-05-03T04:39:14;20.83;;;11.03;;
26484;SDS011;18083;50.560;7.262;2023-05-03T04:41:41;21.07;;;11.03;;
26484;SDS011;18083;50.560;7.262;2023-05-03T04:44:08;17.90;;;10.27;;
26484;SDS011;18083;50.560;7.262;2023-05-03T04:46:36;19.77;;;10.40;;
26484;SDS011;18083;50.560;7.262;2023-05-03T04:49:04;18.20;;;9.90;;
26484;SDS011;18083;50.560;7.262;2023-05-03T04:51:32;16.93;;;10.03;;
26484;SDS011;18083;50.560;7.262;2023-05-03T04:53:59;20.23;;;10.37;;
26484;SDS011;18083;50.560;7.262;2023-05-03T04:56:27;19.27;;;10.63;;
26484;SDS011;18083;50.560;7.262;2023-05-03T04:58:54;18.53;;;10.83;;
26484;SDS011;18083;50.560;7.262;2023-05-03T05:01:22;19.17;;;11.67;;
26484;SDS011;18083;50.560;7.262;2023-05-03T05:03:51;21.30;;;10.53;;
26484;SDS011;18083;50.560;7.262;2023-05-03T05:06:18;31.03;;;10.20;;
26484;SDS011;18083;50.560;7.262;2023-05-03T05:08:46;21.53;;;10.90;;
26484;SDS011;18083;50.560;7.262;2023-05-03T05:11:13;31.57;;;11.93;;
26484;SDS011;18083;50.560;7.262;2023-05-03T05:13:40;36.23;;;14.07;;
26484;SDS011;18083;50.560;7.262;2023-05-03T05:16:08;25.97;;;12.43;;
26484;SDS011;18083;50.560;7.262;2023-05-03T05:18:35;26.47;;;13.63;;
26484;SDS011;18083;50.560;7.262;2023-05-03T05:21:02;23.17;;;14.00;;
26484;SDS011;18083;50.560;7.262;2023-05-03T05:23:30;29.03;;;14.33;;
26484;SDS011;18083;50.560;7.262;2023-05-03T05:25:57;31.77;;;13.83;;
26484;SDS011;18083;50.560;7.262;2023-05-03T05:28:26;23.87;;;14.20;;
26484;SDS011;18083;50.560;7.262;2023-05-03T05:30:53;23.90;;;11.57;;
26484;SDS011;18083;50.560;7.262;2023-05-03T05:33:21;25.27;;;12.20;;
26484;SDS011;18083;50.560;7.262;2023-05-03T05:35:48;18.97;;;12.00;;
26484;SDS011;18083;50.560;7.262;2023-05-03T05:38:15;28.87;;;13.60;;
26484;SDS011;18083;50.560;7.262;2023-05-03T05:40:43;31.13;;;12.10;;
26484;SDS011;18083;50.560;7.262;2023-05-03T05:43:10;17.90;;;10.47;;
26484;SDS011;18083;50.560;7.262;2023-05-03T05:45:37;19.07;;;11.07;;
26484;SDS011;18083;50.560;7.262;2023-05-03T05:48:05;18.73;;;10.83;;
26484;SDS011;18083;50.560;7.262;2023-05-03T05:50:33;19.37;;;10.13;;
26484;SDS011;18083;50.560;7.262;2023-05-03T05:53:01;18.00;;;11.17;;
26484;SDS011;18083;50.560;7.262;2023-05-03T05:55:29;26.80;;;11.00;;
26484;SDS011;18083;50.560;7.262;2023-05-03T05:57:56;13.90;;;9.73;;
26484;SDS011;18083;50.560;7.262;2023-05-03T06:00:23;18.27;;;8.87;;
26484;SDS011;18083;50.560;7.262;2023-05-03T06:02:51;16.97;;;9.40;;
26484;SDS011;18083;50.560;7.262;2023-05-03T06:05:18;24.87;;;10.33;;
26484;SDS011;18083;50.560;7.262;2023-05-03T06:07:45;13.33;;;9.40;;
26484;SDS011;18083;50.560;7.262;2023-05-03T06:10:13;14.87;;;9.23;;
26484;SDS011;18083;50.560;7.262;2023-05-03T06:12:40;14.27;;;9.60;;
26484;SDS011;18083;50.560;7.262;2023-05-03T06:15:08;22.20;;;10.77;;
26484;SDS011;18083;50.560;7.262;2023-05-03T06:17:35;19.47;;;9.80;;
26484;SDS011;18083;50.560;7.262;2023-05-03T06:20:02;14.67;;;9.93;;
26484;SDS011;18083;50.560;7.262;2023-05-03T06:22:30;14.33;;;9.40;;
26484;SDS011;18083;50.560;7.262;2023-05-03T06:24:57;15.57;;;9.73;;
26484;SDS011;18083;50.560;7.262;2023-05-03T06:27:24;18.83;;;9.70;;
26484;SDS011;18083;50.560;7.262;2023-05-03T06:29:52;16.43;;;9.83;;
26484;SDS011;18083;50.560;7.262;2023-05-03T06:32:19;21.17;;;10.23;;
26484;SDS011;18083;50.560;7.262;2023-05-03T06:34:48;17.83;;;10.13;;
26484;SDS011;18083;50.560;7.262;2023-05-03T06:37:16;15.33;;;9.17;;
26484;SDS011;18083;50.560;7.262;2023-05-03T06:39:43;16.73;;;9.47;;
26484;SDS011;18083;50.560;7.262;2023-05-03T06:42:10;14.13;;;9.40;;
26484;SDS011;18083;50.560;7.262;2023-05-03T06:44:37;16.23;;;9.63;;
26484;SDS011;18083;50.560;7.262;2023-05-03T06:47:05;14.93;;;8.43;;
26484;SDS011;18083;50.560;7.262;2023-05-03T06:49:32;15.87;;;9.97;;
26484;SDS011;18083;50.560;7.262;2023-05-03T06:51:59;17.93;;;10.37;;
26484;SDS011;18083;50.560;7.262;2023-05-03T06:54:27;18.13;;;11.43;;
26484;SDS011;18083;50.560;7.262;2023-05-03T06:56:54;12.53;;;9.57;;
26484;SDS011;18083;50.560;7.262;2023-05-03T06:59:21;20.47;;;7.97;;
26484;SDS011;18083;50.560;7.262;2023-05-03T07:01:49;14.43;;;8.83;;
26484;SDS011;18083;50.560;7.262;2023-05-03T07:04:16;17.07;;;9.33;;
26484;SDS011;18083;50.560;7.262;2023-05-03T07:06:44;16.60;;;8.70;;
26484;SDS011;18083;50.560;7.262;2023-05-03T07:09:11;16.10;;;8.23;;
26484;SDS011;18083;50.560;7.262;2023-05-03T07:11:39;12.53;;;8.27;;
26484;SDS011;18083;50.560;7.262;2023-05-03T07:14:08;13.87;;;8.60;;
26484;SDS011;18083;50.560;7.262;2023-05-03T07:16:35;12.82;;;7.08;;
26484;SDS011;18083;50.560;7.262;2023-05-03T07:19:02;13.70;;;6.80;;
26484;SDS011;18083;50.560;7.262;2023-05-03T07:21:29;18.10;;;7.15;;
26484;SDS011;18083;50.560;7.262;2023-05-03T07:23:57;15.08;;;7.97;;
26484;SDS011;18083;50.560;7.262;2023-05-03T07:26:24;11.60;;;6.65;;
26484;SDS011;18083;50.560;7.262;2023-05-03T07:28:51;12.28;;;6.55;;
26484;SDS011;18083;50.560;7.262;2023-05-03T07:31:20;15.63;;;9.05;;
26484;SDS011;18083;50.560;7.262;2023-05-03T07:33:47;19.50;;;8.18;;
26484;SDS011;18083;50.560;7.262;2023-05-03T07:36:15;11.63;;;6.70;;
26484;SDS011;18083;50.560;7.262;2023-05-03T07:38:42;12.20;;;8.50;;
26484;SDS011;18083;50.560;7.262;2023-05-03T07:41:09;9.88;;;5.72;;
26484;SDS011;18083;50.560;7.262;2023-05-03T07:43:36;7.90;;;6.50;;
26484;SDS011;18083;50.560;7.262;2023-05-03T07:46:04;14.45;;;6.00;;
26484;SDS011;18083;50.560;7.262;2023-05-03T07:48:31;7.45;;;5.53;;
26484;SDS011;18083;50.560;7.262;2023-05-03T07:50:58;9.65;;;6.72;;
26484;SDS011;18083;50.560;7.262;2023-05-03T07:53:26;7.42;;;5.92;;
26484;SDS011;18083;50.560;7.262;2023-05-03T07:55:53;9.78;;;6.28;;
26484;SDS011;18083;50.560;7.262;2023-05-03T07:58:21;8.35;;;4.83;;
26484;SDS011;18083;50.560;7.262;2023-05-03T08:00:48;8.05;;;5.85;;
26484;SDS011;18083;50.560;7.262;2023-05-03T08:03:15;7.45;;;5.17;;
26484;SDS011;18083;50.560;7.262;2023-05-03T08:05:42;6.30;;;5.42;;
26484;SDS011;18083;50.560;7.262;2023-05-03T08:08:10;6.20;;;4.35;;
26484;SDS011;18083;50.560;7.262;2023-05-03T08:10:39;7.20;;;5.28;;
26484;SDS011;18083;50.560;7.262;2023-05-03T08:13:06;5.90;;;5.12;;
26484;SDS011;18083;50.560;7.262;2023-05-03T08:15:33;8.13;;;5.30;;
26484;SDS011;18083;50.560;7.262;2023-05-03T08:18:01;7.72;;;5.10;;
26484;SDS011;18083;50.560;7.262;2023-05-03T08:20:28;8.45;;;5.50;;
26484;SDS011;18083;50.560;7.262;2023-05-03T08:22:56;7.28;;;4.97;;
26484;SDS011;18083;50.560;7.262;2023-05-03T08:25:24;8.73;;;5.85;;
26484;SDS011;18083;50.560;7.262;2023-05-03T08:27:53;11.60;;;5.20;;
26484;SDS011;18083;50.560;7.262;2023-05-03T08:30:20;7.70;;;4.67;;
26484;SDS011;18083;50.560;7.262;2023-05-03T08:32:48;7.40;;;4.75;;
26484;SDS011;18083;50.560;7.262;2023-05-03T08:35:16;9.98;;;6.25;;
26484;SDS011;18083;50.560;7.262;2023-05-03T08:37:44;7.05;;;5.58;;
26484;SDS011;18083;50.560;7.262;2023-05-03T08:40:11;10.05;;;5.40;;
26484;SDS011;18083;50.560;7.262;2023-05-03T08:42:43;8.35;;;6.47;;
26484;SDS011;18083;50.560;7.262;2023-05-03T08:45:10;11.73;;;6.17;;
26484;SDS011;18083;50.560;7.262;2023-05-03T08:47:39;9.25;;;5.22;;
26484;SDS011;18083;50.560;7.262;2023-05-03T08:50:07;5.58;;;5.00;;
26484;SDS011;18083;50.560;7.262;2023-05-03T08:52:35;13.15;;;6.10;;
26484;SDS011;18083;50.560;7.262;2023-05-03T08:55:02;9.65;;;5.47;;
26484;SDS011;18083;50.560;7.262;2023-05-03T08:57:30;7.85;;;4.97;;
26484;SDS011;18083;50.560;7.262;2023-05-03T08:59:57;9.70;;;5.40;;
26484;SDS011;18083;50.560;7.262;2023-05-03T09:02:27;8.90;;;5.12;;
26484;SDS011;18083;50.560;7.262;2023-05-03T09:04:54;10.82;;;5.35;;
26484;SDS011;18083;50.560;7.262;2023-05-03T09:07:22;10.30;;;6.37;;
26484;SDS011;18083;50.560;7.262;2023-05-03T09:09:49;8.75;;;5.50;;
26484;SDS011;18083;50.560;7.262;2023-05-03T09:12:36;7.05;;;5.58;;
26484;SDS011;18083;50.560;7.262;2023-05-03T09:14:48;7.40;;;5.70;;
26484;SDS011;18083;50.560;7.262;2023-05-03T09:17:16;13.98;;;6.10;;
26484;SDS011;18083;50.560;7.262;2023-05-03T09:19:53;7.15;;;5.50;;
26484;SDS011;18083;50.560;7.262;2023-05-03T09:22:25;8.28;;;5.05;;
26484;SDS011;18083;50.560;7.262;2023-05-03T09:24:55;7.62;;;4.97;;
26484;SDS011;18083;50.560;7.262;2023-05-03T09:27:23;9.03;;;5.60;;
26484;SDS011;18083;50.560;7.262;2023-05-03T09:29:51;5.87;;;4.65;;
26484;SDS011;18083;50.560;7.262;2023-05-03T09:32:19;7.70;;;4.60;;
26484;SDS011;18083;50.560;7.262;2023-05-03T09:34:48;8.60;;;5.53;;
26484;SDS011;18083;50.560;7.262;2023-05-03T09:37:15;6.97;;;5.00;;
26484;SDS011;18083;50.560;7.262;2023-05-03T09:39:44;10.20;;;6.42;;
26484;SDS011;18083;50.560;7.262;2023-05-03T09:42:13;11.08;;;5.10;;
26484;SDS011;18083;50.560;7.262;2023-05-03T09:44:47;6.33;;;5.42;;
26484;SDS011;18083;50.560;7.262;2023-05-03T09:47:16;9.15;;;5.35;;
26484;SDS011;18083;50.560;7.262;2023-05-03T09:49:48;9.98;;;6.05;;
26484;SDS011;18083;50.560;7.262;2023-05-03T09:52:15;9.08;;;5.60;;
26484;SDS011;18083;50.560;7.262;2023-05-03T09:54:43;6.92;;;5.70;;
26484;SDS011;18083;50.560;7.262;2023-05-03T09:57:10;5.90;;;5.12;;
26484;SDS011;18083;50.560;7.262;2023-05-03T09:59:39;8.53;;;5.45;;
26484;SDS011;18083;50.560;7.262;2023-05-03T10:02:07;9.53;;;5.25;;
26484;SDS011;18083;50.560;7.262;2023-05-03T10:04:38;5.83;;;4.58;;
26484;SDS011;18083;50.560;7.262;2023-05-03T10:07:07;9.63;;;4.95;;
26484;SDS011;18083;50.560;7.262;2023-05-03T10:09:37;6.45;;;4.97;;
26484;SDS011;18083;50.560;7.262;2023-05-03T10:12:06;8.73;;;5.12;;
26484;SDS011;18083;50.560;7.262;2023-05-03T10:14:34;6.33;;;5.08;;
26484;SDS011;18083;50.560;7.262;2023-05-03T10:17:02;7.58;;;5.17;;
26484;SDS011;18083;50.560;7.262;2023-05-03T10:19:33;6.90;;;4.83;;
26484;SDS011;18083;50.560;7.262;2023-05-03T10:22:06;7.72;;;4.70;;
26484;SDS011;18083;50.560;7.262;2023-05-03T10:24:34;7.72;;;4.70;;
26484;SDS011;18083;50.560;7.262;2023-05-03T10:27:03;6.97;;;4.67;;
26484;SDS011;18083;50.560;7.262;2023-05-03T10:32:29;5.42;;;4.92;;
26484;SDS011;18083;50.560;7.262;2023-05-03T10:35:09;7.45;;;4.47;;
26484;SDS011;18083;50.560;7.262;2023-05-03T10:37:38;6.95;;;4.70;;
26484;SDS011;18083;50.560;7.262;2023-05-03T10:40:07;4.72;;;4.20;;
26484;SDS011;18083;50.560;7.262;2023-05-03T10:42:35;7.60;;;5.15;;
26484;SDS011;18083;50.560;7.262;2023-05-03T10:45:03;6.15;;;4.25;;
26484;SDS011;18083;50.560;7.262;2023-05-03T10:47:33;4.70;;;4.20;;
26484;SDS011;18083;50.560;7.262;2023-05-03T10:52:44;6.08;;;4.40;;
26484;SDS011;18083;50.560;7.262;2023-05-03T10:55:12;7.25;;;4.53;;
26484;SDS011;18083;50.560;7.262;2023-05-03T10:57:40;8.08;;;4.67;;
26484;SDS011;18083;50.560;7.262;2023-05-03T11:00:11;7.53;;;4.47;;
26484;SDS011;18083;50.560;7.262;2023-05-03T11:03:25;4.95;;;3.83;;
26484;SDS011;18083;50.560;7.262;2023-05-03T11:05:07;7.55;;;4.28;;
26484;SDS011;18083;50.560;7.262;2023-05-03T11:07:36;7.92;;;4.37;;
26484;SDS011;18083;50.560;7.262;2023-05-03T11:10:16;5.90;;;4.65;;
26484;SDS011;18083;50.560;7.262;2023-05-03T11:12:43;4.45;;;4.05;;
26484;SDS011;18083;50.560;7.262;2023-05-03T11:15:11;6.05;;;3.90;;
26484;SDS011;18083;50.560;7.262;2023-05-03T11:17:38;8.03;;;3.85;;
26484;SDS011;18083;50.560;7.262;2023-05-03T11:20:06;7.05;;;5.17;;
26484;SDS011;18083;50.560;7.262;2023-05-03T11:22:36;5.53;;;3.98;;
26484;SDS011;18083;50.560;7.262;2023-05-03T11:25:04;7.90;;;3.80;;
26484;SDS011;18083;50.560;7.262;2023-05-03T11:27:32;6.53;;;3.52;;
26484;SDS011;18083;50.560;7.262;2023-05-03T11:29:59;4.37;;;3.98;;
26484;SDS011;18083;50.560;7.262;2023-05-03T11:32:26;4.55;;;3.52;;
26484;SDS011;18083;50.560;7.262;2023-05-03T11:34:55;7.58;;;3.20;;
26484;SDS011;18083;50.560;7.262;2023-05-03T11:37:25;4.60;;;3.25;;
26484;SDS011;18083;50.560;7.262;2023-05-03T11:39:52;4.33;;;3.62;;
26484;SDS011;18083;50.560;7.262;2023-05-03T11:42:20;3.98;;;2.60;;
26484;SDS011;18083;50.560;7.262;2023-05-03T11:44:49;8.10;;;3.00;;
26484;SDS011;18083;50.560;7.262;2023-05-03T11:47:16;7.83;;;3.05;;
26484;SDS011;18083;50.560;7.262;2023-05-03T11:49:50;7.80;;;4.00;;
26484;SDS011;18083;50.560;7.262;2023-05-03T11:52:25;4.30;;;2.37;;
26484;SDS011;18083;50.560;7.262;2023-05-03T11:54:54;7.37;;;3.45;;
26484;SDS011;18083;50.560;7.262;2023-05-03T11:57:23;7.42;;;3.40;;
26484;SDS011;18083;50.560;7.262;2023-05-03T11:59:51;4.67;;;2.80;;
26484;SDS011;18083;50.560;7.262;2023-05-03T12:02:18;4.40;;;3.33;;
26484;SDS011;18083;50.560;7.262;2023-05-03T12:04:45;5.85;;;2.80;;
26484;SDS011;18083;50.560;7.262;2023-05-03T12:07:13;6.25;;;2.98;;
26484;SDS011;18083;50.560;7.262;2023-05-03T12:09:40;4.05;;;2.50;;
26484;SDS011;18083;50.560;7.262;2023-05-03T12:12:07;4.20;;;2.47;;
26484;SDS011;18083;50.560;7.262;2023-05-03T12:17:41;4.12;;;2.52;;
26484;SDS011;18083;50.560;7.262;2023-05-03T12:19:49;7.75;;;2.77;;
26484;SDS011;18083;50.560;7.262;2023-05-03T12:22:20;5.87;;;2.67;;
26484;SDS011;18083;50.560;7.262;2023-05-03T12:24:47;3.72;;;2.40;;
26484;SDS011;18083;50.560;7.262;2023-05-03T12:27:15;2.80;;;2.55;;
26484;SDS011;18083;50.560;7.262;2023-05-03T12:29:43;4.95;;;2.95;;
26484;SDS011;18083;50.560;7.262;2023-05-03T12:32:10;3.95;;;2.50;;
26484;SDS011;18083;50.560;7.262;2023-05-03T12:34:38;5.70;;;2.60;;
26484;SDS011;18083;50.560;7.262;2023-05-03T12:37:07;6.40;;;4.35;;
26484;SDS011;18083;50.560;7.262;2023-05-03T12:39:34;2.75;;;2.33;;
26484;SDS011;18083;50.560;7.262;2023-05-03T12:42:02;7.15;;;4.08;;
26484;SDS011;18083;50.560;7.262;2023-05-03T12:44:31;2.92;;;2.33;;
26484;SDS011;18083;50.560;7.262;2023-05-03T12:46:58;2.58;;;2.02;;
26484;SDS011;18083;50.560;7.262;2023-05-03T12:49:25;4.42;;;1.65;;
26484;SDS011;18083;50.560;7.262;2023-05-03T12:51:52;5.03;;;2.15;;
26484;SDS011;18083;50.560;7.262;2023-05-03T12:54:21;4.47;;;2.12;;
26484;SDS011;18083;50.560;7.262;2023-05-03T12:56:49;2.33;;;2.10;;
26484;SDS011;18083;50.560;7.262;2023-05-03T12:59:16;5.55;;;2.40;;
26484;SDS011;18083;50.560;7.262;2023-05-03T13:01:44;4.83;;;4.10;;
26484;SDS011;18083;50.560;7.262;2023-05-03T13:04:11;4.45;;;2.55;;
26484;SDS011;18083;50.560;7.262;2023-05-03T13:06:39;3.15;;;2.30;;
26484;SDS011;18083;50.560;7.262;2023-05-03T13:09:07;6.87;;;1.67;;
26484;SDS011;18083;50.560;7.262;2023-05-03T13:11:34;4.30;;;2.00;;
26484;SDS011;18083;50.560;7.262;2023-05-03T13:14:02;2.40;;;1.55;;
26484;SDS011;18083;50.560;7.262;2023-05-03T13:16:29;2.95;;;2.10;;
26484;SDS011;18083;50.560;7.262;2023-05-03T13:18:57;3.40;;;1.75;;
26484;SDS011;18083;50.560;7.262;2023-05-03T13:21:24;3.47;;;2.17;;
26484;SDS011;18083;50.560;7.262;2023-05-03T13:23:53;2.67;;;1.77;;
26484;SDS011;18083;50.560;7.262;2023-05-03T13:26:20;4.85;;;2.15;;
26484;SDS011;18083;50.560;7.262;2023-05-03T13:28:47;2.00;;;1.40;;
26484;SDS011;18083;50.560;7.262;2023-05-03T13:31:15;6.17;;;1.92;;
26484;SDS011;18083;50.560;7.262;2023-05-03T13:33:43;1.98;;;1.62;;
26484;SDS011;18083;50.560;7.262;2023-05-03T13:36:11;4.50;;;1.92;;
26484;SDS011;18083;50.560;7.262;2023-05-03T13:38:38;3.08;;;1.85;;
26484;SDS011;18083;50.560;7.262;2023-05-03T13:41:07;3.95;;;1.50;;
26484;SDS011;18083;50.560;7.262;2023-05-03T13:43:34;4.60;;;1.50;;
26484;SDS011;18083;50.560;7.262;2023-05-03T13:46:01;2.52;;;1.60;;
26484;SDS011;18083;50.560;7.262;2023-05-03T13:48:29;3.65;;;2.37;;
26484;SDS011;18083;50.560;7.262;2023-05-03T13:50:56;3.70;;;2.98;;
26484;SDS011;18083;50.560;7.262;2023-05-03T13:53:23;6.60;;;3.02;;
26484;SDS011;18083;50.560;7.262;2023-05-03T13:55:51;8.20;;;1.70;;
26484;SDS011;18083;50.560;7.262;2023-05-03T13:58:18;4.28;;;1.65;;
26484;SDS011;18083;50.560;7.262;2023-05-03T14:00:46;2.37;;;1.47;;
26484;SDS011;18083;50.560;7.262;2023-05-03T14:03:13;3.47;;;1.62;;
26484;SDS011;18083;50.560;7.262;2023-05-03T14:05:40;1.90;;;1.50;;
26484;SDS011;18083;50.560;7.262;2023-05-03T14:08:07;1.65;;;1.07;;
26484;SDS011;18083;50.560;7.262;2023-05-03T14:10:35;1.87;;;1.27;;
26484;SDS011;18083;50.560;7.262;2023-05-03T14:13:02;3.33;;;1.92;;
26484;SDS011;18083;50.560;7.262;2023-05-03T14:15:29;4.10;;;1.80;;
26484;SDS011;18083;50.560;7.262;2023-05-03T14:17:56;2.58;;;1.62;;
26484;SDS011;18083;50.560;7.262;2023-05-03T14:20:24;1.45;;;1.35;;
26484;SDS011;18083;50.560;7.262;2023-05-03T14:22:51;1.90;;;1.42;;
26484;SDS011;18083;50.560;7.262;2023-05-03T14:25:18;2.02;;;1.60;;
26484;SDS011;18083;50.560;7.262;2023-05-03T14:27:46;3.72;;;1.50;;
26484;SDS011;18083;50.560;7.262;2023-05-03T14:30:13;2.17;;;1.10;;
26484;SDS011;18083;50.560;7.262;2023-05-03T14:32:40;3.10;;;1.55;;
26484;SDS011;18083;50.560;7.262;2023-05-03T14:35:08;3.20;;;2.08;;
26484;SDS011;18083;50.560;7.262;2023-05-03T14:37:35;2.33;;;1.82;;
26484;SDS011;18083;50.560;7.262;2023-05-03T14:40:03;3.90;;;1.50;;
26484;SDS011;18083;50.560;7.262;2023-05-03T14:42:30;2.27;;;2.05;;
26484;SDS011;18083;50.560;7.262;2023-05-03T14:44:58;4.35;;;2.10;;
26484;SDS011;18083;50.560;7.262;2023-05-03T14:47:25;2.92;;;2.12;;
26484;SDS011;18083;50.560;7.262;2023-05-03T14:49:53;3.35;;;1.80;;
26484;SDS011;18083;50.560;7.262;2023-05-03T14:52:21;2.10;;;1.77;;
26484;SDS011;18083;50.560;7.262;2023-05-03T14:54:48;3.45;;;1.75;;